createdAt,value
2023-11-18T00:02:23.221Z,9.82
2023-11-18T00:04:49.802Z,10.05
2023-11-18T00:07:16.232Z,12.27
2023-11-18T00:09:42.618Z,9.95
2023-11-18T00:12:09.061Z,10.35
2023-11-18T00:14:35.511Z,8.43
2023-11-18T00:17:01.939Z,12.82
2023-11-18T00:19:28.386Z,11.48
2023-11-18T00:21:54.799Z,9.07
2023-11-18T00:24:21.185Z,10.98
2023-11-18T00:26:47.664Z,12.05
2023-11-18T00:29:14.073Z,12.65
2023-11-18T00:31:40.575Z,11.75
2023-11-18T00:34:07.011Z,12.68
2023-11-18T00:36:33.393Z,11.60
2023-11-18T00:38:59.864Z,11.68
2023-11-18T00:41:26.290Z,12.02
2023-11-18T00:43:52.676Z,12.07
2023-11-18T00:46:19.110Z,10.50
2023-11-18T00:48:45.508Z,9.45
2023-11-18T00:51:11.932Z,11.50
2023-11-18T00:53:38.299Z,8.93
2023-11-18T00:56:14.555Z,10.45
2023-11-18T00:58:40.992Z,12.70
2023-11-18T01:01:07.446Z,9.65
2023-11-18T01:03:33.960Z,11.98
2023-11-18T01:06:00.435Z,8.75
2023-11-18T01:08:26.805Z,10.27
2023-11-18T01:10:53.201Z,11.23
2023-11-18T01:13:19.650Z,10.55
2023-11-18T01:15:46.041Z,10.35
2023-11-18T01:18:12.563Z,14.05
2023-11-18T01:20:39.084Z,11.80
2023-11-18T01:23:05.555Z,12.68
2023-11-18T01:25:31.999Z,15.27
2023-11-18T01:27:58.371Z,14.85
2023-11-18T01:30:24.783Z,10.93
2023-11-18T01:32:51.319Z,9.15
2023-11-18T01:35:17.849Z,11.90
2023-11-18T01:37:44.341Z,13.90
2023-11-18T01:40:11.114Z,10.57
2023-11-18T01:42:37.515Z,12.02
2023-11-18T01:45:04.262Z,13.52
2023-11-18T01:47:33.080Z,10.95
2023-11-18T01:50:00.814Z,8.95
2023-11-18T01:52:29.282Z,11.25
2023-11-18T01:54:56.624Z,9.15
2023-11-18T01:57:23.528Z,7.07
2023-11-18T01:59:49.970Z,13.13
2023-11-18T02:02:16.865Z,13.45
2023-11-18T02:04:43.388Z,8.30
2023-11-18T02:07:09.971Z,10.73
2023-11-18T02:09:37.274Z,7.65
2023-11-18T02:12:17.165Z,12.40
2023-11-18T02:14:45.708Z,11.90
2023-11-18T02:17:15.324Z,21.23
2023-11-18T02:19:42.054Z,8.75
2023-11-18T02:22:09.748Z,9.85
2023-11-18T02:24:36.226Z,11.63
2023-11-18T02:27:02.676Z,9.45
2023-11-18T02:29:43.713Z,11.05
2023-11-18T02:32:16.168Z,10.60
2023-11-18T02:34:51.861Z,10.25
2023-11-18T02:37:18.969Z,11.43
2023-11-18T02:39:52.422Z,10.50
2023-11-18T02:42:19.105Z,10.38
2023-11-18T02:44:46.099Z,10.45
2023-11-18T02:47:12.568Z,11.95
2023-11-18T02:49:39.017Z,10.57
2023-11-18T02:52:05.718Z,11.00
2023-11-18T02:54:32.173Z,7.95
2023-11-18T02:56:58.667Z,9.32
2023-11-18T02:59:25.123Z,11.85
2023-11-18T03:01:55.014Z,12.80
2023-11-18T03:04:21.410Z,10.32
2023-11-18T03:06:47.809Z,11.38
2023-11-18T03:09:14.208Z,11.90
2023-11-18T03:11:40.583Z,10.52
2023-11-18T03:14:07.020Z,14.13
2023-11-18T03:16:33.644Z,14.73
2023-11-18T03:19:00.095Z,9.07
2023-11-18T03:21:26.554Z,11.13
2023-11-18T03:23:55.637Z,10.80
2023-11-18T03:26:22.065Z,11.10
2023-11-18T03:28:48.474Z,9.40
2023-11-18T03:31:14.880Z,9.20
2023-11-18T03:33:41.398Z,7.75
2023-11-18T03:36:08.223Z,9.07
2023-11-18T03:38:34.612Z,7.68
2023-11-18T03:41:01.051Z,10.55
2023-11-18T03:43:27.454Z,13.82
2023-11-18T03:45:53.830Z,10.20
2023-11-18T03:48:20.230Z,7.95
2023-11-18T03:50:46.666Z,9.70
2023-11-18T03:53:13.125Z,11.20
2023-11-18T03:55:39.541Z,8.05
2023-11-18T03:58:06.034Z,10.02
2023-11-18T04:00:32.470Z,8.15
2023-11-18T04:02:59.684Z,11.95
2023-11-18T04:05:26.349Z,10.15
2023-11-18T04:07:52.747Z,10.52
2023-11-18T04:10:19.556Z,6.00
2023-11-18T04:12:46.022Z,9.13
2023-11-18T04:15:12.463Z,11.75
2023-11-18T04:17:39.359Z,9.23
2023-11-18T04:20:06.530Z,9.25
2023-11-18T04:22:33.063Z,6.53
2023-11-18T04:24:59.479Z,8.88
2023-11-18T04:27:25.924Z,7.28
2023-11-18T04:29:52.328Z,7.88
2023-11-18T04:32:18.730Z,7.85
2023-11-18T04:34:45.141Z,7.43
2023-11-18T04:37:11.549Z,9.00
2023-11-18T04:39:38.006Z,7.82
2023-11-18T04:42:04.693Z,9.57
2023-11-18T04:44:31.174Z,9.32
2023-11-18T04:46:57.650Z,8.95
2023-11-18T04:49:24.189Z,7.97
2023-11-18T04:51:50.647Z,7.63
2023-11-18T04:54:17.048Z,6.60
2023-11-18T04:56:43.591Z,9.70
2023-11-18T04:59:10.023Z,10.43
2023-11-18T05:01:36.505Z,8.05
2023-11-18T05:04:03.059Z,10.18
2023-11-18T05:06:29.511Z,9.38
2023-11-18T05:08:56.052Z,10.20
2023-11-18T05:11:22.498Z,8.93
2023-11-18T05:13:48.955Z,10.38
2023-11-18T05:16:15.365Z,12.23
2023-11-18T05:18:41.981Z,11.15
2023-11-18T05:21:08.524Z,10.25
2023-11-18T05:23:35.680Z,14.55
2023-11-18T05:26:02.651Z,10.15
2023-11-18T05:28:29.132Z,9.73
2023-11-18T05:30:55.633Z,9.10
2023-11-18T05:33:22.111Z,9.30
2023-11-18T05:35:48.986Z,10.35
2023-11-18T05:38:19.914Z,11.90
2023-11-18T05:40:46.867Z,10.63
2023-11-18T05:43:13.255Z,6.53
2023-11-18T05:45:39.638Z,14.23
2023-11-18T05:48:06.192Z,11.05
2023-11-18T05:50:32.612Z,12.95
2023-11-18T05:52:59.075Z,13.27
2023-11-18T05:55:25.509Z,11.85
2023-11-18T05:57:51.909Z,11.32
2023-11-18T06:00:25.181Z,10.43
2023-11-18T06:02:54.412Z,8.90
2023-11-18T06:05:20.968Z,7.40
2023-11-18T06:07:47.398Z,9.40
2023-11-18T06:10:13.835Z,10.18
2023-11-18T06:12:40.238Z,7.55
2023-11-18T06:15:07.015Z,8.25
2023-11-18T06:17:33.535Z,6.53
2023-11-18T06:20:00.032Z,9.43
2023-11-18T06:22:26.649Z,11.90
2023-11-18T06:24:53.048Z,8.43
2023-11-18T06:27:19.471Z,6.15
2023-11-18T06:29:45.894Z,7.82
2023-11-18T06:32:12.409Z,10.57
2023-11-18T06:34:38.922Z,9.13
2023-11-18T06:37:05.345Z,12.32
2023-11-18T06:39:31.767Z,10.73
2023-11-18T06:41:58.207Z,9.23
2023-11-18T06:44:24.801Z,15.13
2023-11-18T06:46:51.543Z,10.57
2023-11-18T06:49:18.158Z,9.07
2023-11-18T06:51:44.636Z,14.15
2023-11-18T06:54:11.970Z,12.10
2023-11-18T06:56:40.469Z,12.35
2023-11-18T06:59:07.372Z,15.13
2023-11-18T07:01:37.686Z,14.35
2023-11-18T07:04:04.581Z,11.32
2023-11-18T07:06:31.066Z,13.18
2023-11-18T07:08:57.457Z,14.02
2023-11-18T07:11:23.853Z,12.90
2023-11-18T07:13:50.343Z,13.45
2023-11-18T07:16:16.855Z,13.48
2023-11-18T07:18:43.277Z,15.23
2023-11-18T07:21:09.692Z,16.05
2023-11-18T07:23:36.860Z,15.45
2023-11-18T07:26:03.648Z,12.65
2023-11-18T07:28:30.649Z,16.35
2023-11-18T07:30:57.037Z,15.57
2023-11-18T07:33:23.492Z,15.85
2023-11-18T07:35:49.952Z,16.23
2023-11-18T07:38:17.370Z,18.17
2023-11-18T07:40:43.884Z,15.07
2023-11-18T07:43:10.333Z,15.65
2023-11-18T07:45:37.796Z,15.00
2023-11-18T07:48:05.887Z,15.52
2023-11-18T07:50:32.324Z,14.52
2023-11-18T07:52:58.736Z,12.85
2023-11-18T07:55:25.140Z,15.35
2023-11-18T07:57:51.633Z,15.30
2023-11-18T08:00:18.077Z,18.58
2023-11-18T08:02:44.567Z,10.07
2023-11-18T08:05:11.022Z,15.10
2023-11-18T08:07:37.505Z,11.00
2023-11-18T08:10:05.644Z,10.35
2023-11-18T08:12:33.243Z,14.85
2023-11-18T08:15:01.180Z,15.75
2023-11-18T08:17:27.652Z,13.40
2023-11-18T08:19:54.136Z,14.50
2023-11-18T08:22:20.630Z,11.63
2023-11-18T08:24:48.659Z,17.40
2023-11-18T08:27:15.203Z,13.48
2023-11-18T08:29:41.634Z,15.93
2023-11-18T08:32:08.366Z,11.48
2023-11-18T08:34:34.858Z,11.93
2023-11-18T08:37:01.276Z,14.10
2023-11-18T08:39:27.703Z,13.38
2023-11-18T08:41:54.069Z,12.13
2023-11-18T08:44:24.290Z,11.40
2023-11-18T08:46:54.036Z,13.90
2023-11-18T08:49:20.658Z,10.00
2023-11-18T08:51:47.072Z,8.38
2023-11-18T08:54:13.477Z,8.35
2023-11-18T08:56:41.794Z,10.23
2023-11-18T08:59:09.451Z,9.27
2023-11-18T09:01:36.023Z,9.32
2023-11-18T09:04:02.527Z,10.82
2023-11-18T09:06:28.977Z,8.48
2023-11-18T09:08:56.254Z,10.80
2023-11-18T09:11:24.729Z,7.70
2023-11-18T09:13:52.386Z,8.13
2023-11-18T09:18:45.263Z,7.85
2023-11-18T09:21:12.975Z,7.93
2023-11-18T09:23:39.365Z,8.45
2023-11-18T09:26:05.810Z,8.90
2023-11-18T09:28:32.249Z,8.35
2023-11-18T09:30:58.880Z,7.03
2023-11-18T09:33:27.764Z,8.85
2023-11-18T09:35:54.337Z,8.00
2023-11-18T09:38:20.803Z,7.18
2023-11-18T09:40:49.856Z,6.30
2023-11-18T09:43:16.341Z,8.77
2023-11-18T09:45:45.075Z,9.05
2023-11-18T09:48:11.830Z,7.65
2023-11-18T09:50:38.896Z,10.85
2023-11-18T09:53:10.641Z,7.57
2023-11-18T09:55:50.534Z,6.13
2023-11-18T09:58:19.648Z,6.00
2023-11-18T10:00:49.673Z,7.88
2023-11-18T10:03:16.160Z,5.88
2023-11-18T10:05:42.992Z,8.20
2023-11-18T10:08:09.829Z,5.25
2023-11-18T10:10:37.709Z,9.38
2023-11-18T10:13:05.507Z,7.75
2023-11-18T10:15:33.311Z,9.80
2023-11-18T10:18:00.444Z,9.18
2023-11-18T10:20:46.367Z,10.63
2023-11-18T10:23:17.522Z,9.20
2023-11-18T10:25:48.655Z,8.63
2023-11-18T10:28:28.427Z,6.53
2023-11-18T10:31:22.757Z,11.90
2023-11-18T10:33:50.160Z,11.57
2023-11-18T10:36:21.391Z,8.40
2023-11-18T10:38:49.616Z,7.63
2023-11-18T10:41:16.923Z,7.90
2023-11-18T10:43:44.091Z,8.10
2023-11-18T10:46:11.758Z,6.95
2023-11-18T10:48:46.368Z,7.97
2023-11-18T10:51:14.825Z,7.75
2023-11-18T10:53:42.211Z,4.97
2023-11-18T10:56:18.274Z,7.43
2023-11-18T10:58:44.769Z,6.28
2023-11-18T11:01:11.191Z,5.22
2023-11-18T11:03:53.908Z,5.45
2023-11-18T11:06:22.223Z,5.53
2023-11-18T11:08:48.757Z,7.50
2023-11-18T11:11:16.334Z,4.82
2023-11-18T11:13:45.190Z,4.30
2023-11-18T11:16:17.566Z,6.03
2023-11-18T11:18:48.619Z,3.78
2023-11-18T11:21:20.792Z,5.82
2023-11-18T11:24:05.213Z,7.32
2023-11-18T11:26:50.086Z,5.68
2023-11-18T11:29:26.734Z,6.72
2023-11-18T11:32:36.318Z,5.30
2023-11-18T11:35:07.119Z,6.68
2023-11-18T11:37:33.703Z,6.32
2023-11-18T11:40:00.166Z,4.38
2023-11-18T11:42:28.188Z,7.65
2023-11-18T11:44:55.225Z,6.78
2023-11-18T11:47:23.109Z,5.72
2023-11-18T11:50:01.677Z,6.60
2023-11-18T11:52:33.666Z,8.30
2023-11-18T11:55:13.129Z,6.93
2023-11-18T11:57:41.025Z,6.97
2023-11-18T12:00:10.953Z,8.20
2023-11-18T12:02:37.566Z,6.47
2023-11-18T12:05:06.328Z,10.15
2023-11-18T12:07:33.161Z,9.80
2023-11-18T12:10:00.462Z,10.07
2023-11-18T12:12:28.075Z,8.00
2023-11-18T12:14:56.320Z,7.70
2023-11-18T12:17:23.810Z,16.30
2023-11-18T12:19:50.483Z,7.90
2023-11-18T12:22:21.822Z,13.23
2023-11-18T12:25:08.417Z,9.32
2023-11-18T12:27:40.719Z,11.05
2023-11-18T12:30:16.176Z,9.60
2023-11-18T12:32:57.869Z,12.73
2023-11-18T12:35:24.399Z,8.07
2023-11-18T12:38:27.601Z,9.30
2023-11-18T12:40:55.868Z,8.55
2023-11-18T12:43:44.018Z,13.00
2023-11-18T12:47:01.198Z,8.20
2023-11-18T12:49:27.639Z,9.75
2023-11-18T12:51:55.354Z,7.80
2023-11-18T12:54:25.192Z,10.38
2023-11-18T12:56:52.637Z,8.10
2023-11-18T12:59:19.150Z,8.77
2023-11-18T13:01:48.384Z,8.05
2023-11-18T13:04:15.034Z,9.23
2023-11-18T13:06:41.503Z,7.47
2023-11-18T13:09:07.988Z,8.05
2023-11-18T13:11:34.438Z,12.15
2023-11-18T13:14:01.025Z,12.07
2023-11-18T13:16:27.622Z,9.82
2023-11-18T13:18:54.082Z,7.88
2023-11-18T13:21:21.274Z,12.20
2023-11-18T13:23:52.870Z,8.40
2023-11-18T13:26:20.924Z,9.23
2023-11-18T13:28:48.308Z,10.77
2023-11-18T13:31:14.852Z,8.82
2023-11-18T13:33:41.344Z,8.13
2023-11-18T13:36:08.453Z,8.90
2023-11-18T13:38:34.920Z,11.38
2023-11-18T13:41:01.388Z,7.47
2023-11-18T13:43:27.847Z,7.18
2023-11-18T13:45:54.339Z,7.40
2023-11-18T13:48:22.446Z,9.85
2023-11-18T13:50:48.957Z,9.00
2023-11-18T13:53:15.485Z,10.85
2023-11-18T13:55:42.043Z,9.65
2023-11-18T13:58:08.712Z,18.00
2023-11-18T14:00:35.382Z,21.75
2023-11-18T14:03:02.311Z,13.35
2023-11-18T14:05:28.944Z,16.75
2023-11-18T14:07:55.954Z,18.58
2023-11-18T14:10:23.608Z,14.18
2023-11-18T14:13:04.367Z,18.20
2023-11-18T14:15:30.848Z,19.40
2023-11-18T14:17:57.285Z,19.63
2023-11-18T14:20:23.762Z,16.05
2023-11-18T14:22:52.185Z,16.77
2023-11-18T14:25:19.684Z,15.82
2023-11-18T14:27:46.092Z,15.55
2023-11-18T14:30:13.248Z,11.57
2023-11-18T14:32:39.722Z,12.88
2023-11-18T14:35:06.551Z,10.80
2023-11-18T14:37:32.949Z,13.00
2023-11-18T14:39:59.381Z,18.70
2023-11-18T14:42:25.885Z,17.15
2023-11-18T14:44:52.303Z,17.13
2023-11-18T14:47:18.746Z,18.15
2023-11-18T14:49:45.205Z,15.98
2023-11-18T14:52:11.635Z,20.80
2023-11-18T14:54:38.065Z,27.38
2023-11-18T14:57:04.629Z,18.55
2023-11-18T14:59:31.061Z,20.55
2023-11-18T15:01:57.587Z,26.67
2023-11-18T15:04:24.496Z,21.30
2023-11-18T15:06:51.288Z,25.98
2023-11-18T15:09:17.696Z,20.83
2023-11-18T15:11:44.106Z,23.45
2023-11-18T15:14:10.588Z,24.83
2023-11-18T15:16:37.035Z,30.33
2023-11-18T15:19:04.031Z,23.50
2023-11-18T15:21:30.453Z,25.02
2023-11-18T15:23:56.890Z,25.95
2023-11-18T15:26:23.316Z,29.92
2023-11-18T15:28:49.728Z,22.77
2023-11-18T15:31:16.196Z,21.92
2023-11-18T15:33:42.569Z,22.17
2023-11-18T15:36:09.637Z,22.63
2023-11-18T15:38:36.077Z,22.30
2023-11-18T15:41:02.527Z,24.67
2023-11-18T15:43:28.929Z,22.83
2023-11-18T15:45:55.343Z,29.17
2023-11-18T15:48:21.817Z,21.70
2023-11-18T15:50:48.329Z,25.15
2023-11-18T15:53:15.731Z,25.55
2023-11-18T15:55:43.008Z,24.65
2023-11-18T15:58:09.481Z,19.58
2023-11-18T16:00:36.083Z,21.70
2023-11-18T16:03:03.474Z,20.00
2023-11-18T16:05:30.779Z,18.17
2023-11-18T16:07:57.288Z,17.95
2023-11-18T16:10:27.250Z,17.35
2023-11-18T16:13:02.667Z,20.77
2023-11-18T16:15:30.337Z,26.48
2023-11-18T16:17:58.149Z,19.85
2023-11-18T16:20:29.998Z,20.50
2023-11-18T16:22:56.568Z,26.65
2023-11-18T16:25:25.033Z,19.48
2023-11-18T16:27:52.456Z,18.88
2023-11-18T16:30:20.816Z,20.17
2023-11-18T16:32:50.132Z,18.80
2023-11-18T16:35:17.569Z,16.77
2023-11-18T16:37:44.376Z,18.08
2023-11-18T16:40:12.388Z,18.27
2023-11-18T16:42:38.781Z,20.70
2023-11-18T16:45:05.560Z,29.58
2023-11-18T16:47:32.103Z,23.58
2023-11-18T16:50:03.612Z,18.02
2023-11-18T16:52:31.205Z,23.15
2023-11-18T16:54:57.680Z,20.80
2023-11-18T16:57:24.201Z,18.85
2023-11-18T16:59:50.741Z,19.98
2023-11-18T17:02:17.160Z,17.55
2023-11-18T17:04:43.611Z,19.20
2023-11-18T17:07:10.105Z,15.25
2023-11-18T17:09:36.533Z,23.27
2023-11-18T17:12:03.009Z,21.83
2023-11-18T17:14:29.495Z,20.92
2023-11-18T17:16:55.979Z,26.55
2023-11-18T17:19:22.490Z,19.17
2023-11-18T17:21:48.875Z,23.63
2023-11-18T17:24:15.294Z,19.33
2023-11-18T17:26:41.707Z,22.05
2023-11-18T17:29:08.198Z,24.38
2023-11-18T17:31:35.847Z,19.90
2023-11-18T17:36:29.041Z,24.13
2023-11-18T17:38:55.556Z,24.13
2023-11-18T17:41:22.118Z,20.52
2023-11-18T17:43:49.645Z,23.02
2023-11-18T17:48:43.215Z,19.52
2023-11-18T17:51:09.751Z,22.67
2023-11-18T17:53:36.378Z,16.83
2023-11-18T17:56:03.092Z,19.08
2023-11-18T17:58:29.507Z,15.55
2023-11-18T18:00:55.904Z,17.42
2023-11-18T18:03:22.389Z,16.83
2023-11-18T18:05:48.856Z,16.45
2023-11-18T18:10:42.786Z,14.80
2023-11-18T18:13:09.255Z,17.33
2023-11-18T18:15:35.642Z,16.30
2023-11-18T18:18:02.085Z,17.38
2023-11-18T18:20:28.672Z,15.70
2023-11-18T18:22:55.114Z,19.73
2023-11-18T18:25:21.516Z,14.77
2023-11-18T18:27:48.092Z,16.00
2023-11-18T18:30:14.707Z,21.73
2023-11-18T18:32:41.299Z,25.45
2023-11-18T18:35:08.403Z,17.83
2023-11-18T18:37:35.088Z,17.45
2023-11-18T18:40:01.480Z,18.95
2023-11-18T18:42:27.856Z,18.45
2023-11-18T18:44:54.300Z,14.88
2023-11-18T18:47:22.370Z,17.42
2023-11-18T18:49:49.387Z,16.17
2023-11-18T18:52:15.756Z,19.60
2023-11-18T18:54:42.217Z,19.75
2023-11-18T18:57:08.658Z,19.90
2023-11-18T18:59:35.287Z,16.77
2023-11-18T19:02:01.778Z,16.08
2023-11-18T19:04:28.173Z,16.85
2023-11-18T19:06:54.567Z,11.32
2023-11-18T19:09:21.035Z,13.68
2023-11-18T19:11:48.943Z,15.68
2023-11-18T19:14:15.623Z,12.25
2023-11-18T19:16:43.634Z,20.52
2023-11-18T19:19:10.173Z,12.63
2023-11-18T19:21:36.575Z,12.18
2023-11-18T19:24:03.032Z,14.07
2023-11-18T19:26:29.466Z,14.50
2023-11-18T19:28:55.876Z,17.10
2023-11-18T19:31:22.252Z,10.85
2023-11-18T19:33:48.707Z,11.98
2023-11-18T19:36:15.144Z,11.93
2023-11-18T19:38:41.582Z,13.32
2023-11-18T19:41:08.130Z,9.95
2023-11-18T19:43:34.601Z,13.48
2023-11-18T19:46:01.441Z,11.68
2023-11-18T19:48:27.935Z,9.75
2023-11-18T19:50:54.511Z,14.38
2023-11-18T19:53:21.656Z,13.27
2023-11-18T19:55:48.093Z,11.02
2023-11-18T19:58:14.633Z,10.98
2023-11-18T20:00:41.043Z,12.82
2023-11-18T20:03:07.566Z,10.95
2023-11-18T20:05:34.091Z,10.52
2023-11-18T20:08:00.522Z,15.63
2023-11-18T20:10:26.936Z,13.15
2023-11-18T20:12:53.365Z,12.40
2023-11-18T20:15:19.799Z,12.75
2023-11-18T20:17:46.914Z,9.80
2023-11-18T20:20:13.612Z,10.85
2023-11-18T20:22:40.062Z,11.30
2023-11-18T20:25:07.015Z,11.40
2023-11-18T20:27:34.752Z,11.35
2023-11-18T20:30:01.253Z,12.57
2023-11-18T20:32:27.731Z,11.23
2023-11-18T20:34:54.197Z,11.63
2023-11-18T20:37:20.601Z,11.45
2023-11-18T20:39:47.005Z,7.78
2023-11-18T20:42:13.398Z,10.82
2023-11-18T20:44:39.819Z,12.18
2023-11-18T20:47:06.392Z,13.50
2023-11-18T20:49:32.791Z,12.88
2023-11-18T20:51:59.232Z,14.00
2023-11-18T20:54:25.915Z,9.98
2023-11-18T20:56:52.289Z,11.00
2023-11-18T20:59:18.754Z,10.45
2023-11-18T21:01:45.783Z,14.27
2023-11-18T21:04:12.280Z,11.55
2023-11-18T21:06:38.800Z,14.07
2023-11-18T21:09:05.331Z,11.80
2023-11-18T21:11:31.792Z,13.07
2023-11-18T21:13:58.335Z,9.73
2023-11-18T21:16:24.770Z,12.57
2023-11-18T21:18:51.226Z,11.85
2023-11-18T21:21:17.654Z,9.68
2023-11-18T21:23:44.043Z,8.95
2023-11-18T21:26:10.483Z,12.25
2023-11-18T21:28:37.169Z,10.95
2023-11-18T21:31:04.246Z,10.20
2023-11-18T21:33:30.637Z,8.88
2023-11-18T21:35:57.034Z,8.38
2023-11-18T21:38:23.458Z,15.82
2023-11-18T21:40:49.940Z,11.93
2023-11-18T21:43:16.637Z,10.43
2023-11-18T21:45:43.264Z,12.75
2023-11-18T21:48:09.763Z,9.82
2023-11-18T21:50:36.237Z,9.35
2023-11-18T21:53:02.674Z,9.93
2023-11-18T21:55:29.097Z,10.65
2023-11-18T21:57:55.560Z,9.18
2023-11-18T22:00:22.011Z,10.85
2023-11-18T22:02:48.777Z,11.80
2023-11-18T22:05:15.639Z,13.45
2023-11-18T22:07:42.410Z,12.15
2023-11-18T22:10:10.131Z,12.52
2023-11-18T22:12:36.545Z,11.10
2023-11-18T22:15:03.097Z,9.80
2023-11-18T22:17:29.569Z,12.07
2023-11-18T22:19:56.021Z,12.02
2023-11-18T22:22:22.511Z,11.30
2023-11-18T22:24:48.896Z,11.70
2023-11-18T22:27:15.348Z,13.00
2023-11-18T22:29:42.180Z,11.60
2023-11-18T22:32:08.754Z,12.23
2023-11-18T22:34:35.325Z,12.35
2023-11-18T22:37:01.830Z,11.32
2023-11-18T22:39:28.217Z,10.07
2023-11-18T22:41:54.601Z,10.75
2023-11-18T22:44:23.296Z,11.20
2023-11-18T22:46:50.192Z,10.48
2023-11-18T22:49:16.615Z,11.60
2023-11-18T22:51:43.002Z,12.23
2023-11-18T22:54:09.375Z,13.10
2023-11-18T22:56:35.796Z,14.18
2023-11-18T22:59:02.209Z,11.80
2023-11-18T23:01:28.613Z,10.32
2023-11-18T23:03:55.112Z,9.40
2023-11-18T23:06:21.577Z,9.05
2023-11-18T23:08:51.742Z,16.38
2023-11-18T23:11:18.920Z,12.13
2023-11-18T23:13:45.353Z,10.10
2023-11-18T23:16:12.079Z,12.07
2023-11-18T23:18:39.498Z,9.82
2023-11-18T23:21:06.246Z,11.10
2023-11-18T23:23:32.723Z,13.95
2023-11-18T23:25:59.145Z,11.90
2023-11-18T23:28:25.554Z,11.77
2023-11-18T23:30:51.997Z,9.52
2023-11-18T23:33:18.514Z,15.82
2023-11-18T23:35:47.939Z,12.32
2023-11-18T23:38:14.331Z,11.20
2023-11-18T23:40:41.233Z,17.60
2023-11-18T23:43:07.722Z,11.05
2023-11-18T23:45:34.138Z,11.80
2023-11-18T23:48:00.608Z,14.35
2023-11-18T23:50:27.042Z,13.68
2023-11-18T23:52:53.482Z,10.60
2023-11-18T23:55:20.090Z,11.30
2023-11-18T23:57:46.475Z,14.95
